Time;durP1;ratioP1;P1;durP2;ratioP2;P2;SDS_P1;SDS_P2;PMS_P1;PMS_P2;Temp;Humidity;BMP_temperature;BMP_pressure;BME280_temperature;BME280_humidity;BME280_pressure;Samples;Min_cycle;Max_cycle;Signal;HPM_P1;HPM_P2
2023/08/31 00:01:16;;;;;;;3.45;1.10;;;12.20;99.90;;;;;;5023331;22;20089;-34
2023/08/31 00:03:42;;;;;;;2.38;0.50;;;12.20;99.90;;;;;;5024872;28;20065;-34
2023/08/31 00:08:36;;;;;;;1.20;0.45;;;12.30;99.90;;;;;;5006300;28;20058;-35
2023/08/31 00:11:02;;;;;;;6.45;1.65;;;12.40;99.90;;;;;;5022755;22;20349;-89
2023/08/31 00:13:33;;;;;;;4.03;1.25;;;12.40;99.90;;;;;;5053996;28;20053;-92
2023/08/31 00:15:59;;;;;;;2.08;0.88;;;12.50;99.90;;;;;;4996268;28;20053;-92
2023/08/31 00:18:25;;;;;;;3.47;0.80;;;12.50;99.90;;;;;;5030598;22;20100;-36
2023/08/31 00:20:52;;;;;;;1.67;0.52;;;12.50;99.90;;;;;;5368344;22;20389;-35
2023/08/31 00:23:18;;;;;;;2.45;1.50;;;12.40;99.90;;;;;;5018164;28;20095;-35
2023/08/31 00:28:20;;;;;;;0.80;0.20;;;12.40;99.90;;;;;;5701595;22;20052;-36
2023/08/31 00:30:46;;;;;;;0.73;0.20;;;12.40;99.90;;;;;;5054261;22;20419;-34
2023/08/31 00:33:12;;;;;;;0.90;0.20;;;12.30;99.90;;;;;;5001206;28;20050;-35
2023/08/31 00:35:38;;;;;;;1.65;0.25;;;12.20;99.90;;;;;;5079888;22;20122;-34
2023/08/31 00:38:04;;;;;;;1.27;0.17;;;12.20;99.90;;;;;;5043822;28;20052;-34
2023/08/31 00:40:31;;;;;;;1.10;0.20;;;12.20;99.90;;;;;;5110016;22;20061;-34
2023/08/31 00:43:00;;;;;;;1.63;0.20;;;12.20;99.90;;;;;;5032348;28;20041;-34
2023/08/31 00:45:25;;;;;;;3.95;0.30;;;12.20;99.90;;;;;;5392399;22;20060;-34
2023/08/31 00:47:51;;;;;;;0.93;0.20;;;12.20;99.90;;;;;;5023575;28;20495;-34
2023/08/31 00:52:47;;;;;;;5.22;0.80;;;12.20;99.90;;;;;;5006477;28;20058;-36
2023/08/31 00:55:13;;;;;;;5.95;1.33;;;12.20;99.90;;;;;;5039020;22;20057;-36
2023/08/31 00:57:39;;;;;;;5.07;2.03;;;12.20;99.90;;;;;;5046459;28;20053;-35
2023/08/31 01:00:06;;;;;;;4.82;1.25;;;12.20;99.90;;;;;;5105609;22;20540;-35
2023/08/31 01:06:10;;;;;;;4.63;1.75;;;12.30;99.90;;;;;;5525753;22;20037;-93
2023/08/31 01:08:53;;;;;;;4.43;1.35;;;12.30;99.90;;;;;;5039876;28;20112;-92
2023/08/31 01:12:04;;;;;;;4.45;1.08;;;12.30;99.90;;;;;;5055790;22;20107;-36
2023/08/31 01:14:39;;;;;;;4.00;1.30;;;12.30;99.90;;;;;;5189719;22;20505;-46
2023/08/31 01:17:07;;;;;;;4.60;1.40;;;12.30;99.90;;;;;;5042583;28;20473;-37
2023/08/31 01:19:44;;;;;;;3.40;1.08;;;12.20;99.90;;;;;;5154376;22;20057;-36
2023/08/31 01:24:52;;;;;;;2.22;0.80;;;12.20;99.90;;;;;;5133520;22;20507;-34
2023/08/31 01:29:54;;;;;;;3.20;0.65;;;12.10;99.90;;;;;;5352906;23;20058;-36
2023/08/31 01:35:09;;;;;;;1.65;0.50;;;12.10;99.90;;;;;;5234617;22;20464;-34
2023/08/31 01:40:18;;;;;;;1.08;0.50;;;12.00;99.90;;;;;;5032149;22;20053;-35
2023/08/31 01:42:46;;;;;;;0.98;0.52;;;12.00;99.90;;;;;;5357379;22;20028;-35
2023/08/31 01:45:16;;;;;;;1.13;0.45;;;11.90;99.90;;;;;;5027419;28;20056;-35
2023/08/31 01:50:11;;;;;;;1.83;0.40;;;11.90;99.90;;;;;;5005938;28;20057;-35
2023/08/31 01:52:37;;;;;;;2.15;0.45;;;11.90;99.90;;;;;;5181990;22;20041;-34
2023/08/31 01:55:04;;;;;;;0.93;0.28;;;11.80;99.90;;;;;;5027328;28;20442;-35
2023/08/31 01:57:29;;;;;;;3.50;0.30;;;11.80;99.90;;;;;;5345935;22;20520;-34
2023/08/31 01:59:55;;;;;;;0.80;0.30;;;11.70;99.90;;;;;;5027109;28;20053;-35
2023/08/31 02:02:21;;;;;;;0.85;0.20;;;11.70;99.90;;;;;;5032900;22;20100;-35
2023/08/31 02:04:46;;;;;;;0.68;0.20;;;11.60;99.90;;;;;;5003545;28;20046;-35
2023/08/31 02:07:12;;;;;;;1.75;0.32;;;11.60;99.90;;;;;;5378890;23;20044;-34
2023/08/31 02:09:38;;;;;;;0.60;0.20;;;11.60;99.90;;;;;;5043651;28;20060;-34
2023/08/31 02:12:04;;;;;;;0.90;0.20;;;11.50;99.90;;;;;;5174815;22;20089;-35
2023/08/31 02:14:30;;;;;;;0.25;0.13;;;11.50;99.90;;;;;;5017798;28;20042;-45
2023/08/31 02:16:56;;;;;;;1.38;0.20;;;11.50;99.90;;;;;;5428498;22;20060;-36
2023/08/31 02:19:21;;;;;;;1.48;0.20;;;11.40;99.90;;;;;;5021976;28;21620;-35
2023/08/31 02:21:47;;;;;;;2.40;0.50;;;11.40;99.90;;;;;;5306337;22;20430;-36
2023/08/31 02:24:13;;;;;;;1.20;0.40;;;11.30;99.90;;;;;;5036716;28;20067;-37
2023/08/31 02:26:39;;;;;;;1.85;0.70;;;11.30;99.90;;;;;;5284361;22;20126;-34
2023/08/31 02:29:04;;;;;;;1.85;0.70;;;11.30;99.90;;;;;;5037301;28;20084;-37
2023/08/31 02:31:30;;;;;;;1.10;0.70;;;11.30;99.90;;;;;;5203787;22;20053;-38
2023/08/31 02:33:56;;;;;;;2.92;0.98;;;11.20;99.90;;;;;;5034586;28;20038;-36
2023/08/31 02:36:21;;;;;;;1.73;0.98;;;11.20;99.90;;;;;;5175087;22;20061;-35
2023/08/31 02:38:49;;;;;;;2.70;1.13;;;11.20;99.90;;;;;;5015881;28;20052;-35
2023/08/31 02:41:15;;;;;;;3.13;1.35;;;11.20;99.90;;;;;;5349870;22;20536;-35
2023/08/31 02:43:40;;;;;;;4.13;1.42;;;11.20;99.90;;;;;;5016105;28;20048;-35
2023/08/31 02:46:06;;;;;;;3.72;1.85;;;11.30;99.90;;;;;;5290513;22;20046;-36
2023/08/31 02:48:33;;;;;;;3.25;2.20;;;11.20;99.90;;;;;;5001127;28;20137;-36
2023/08/31 02:51:00;;;;;;;4.05;2.70;;;11.30;99.90;;;;;;5186364;22;20591;-37
2023/08/31 02:53:30;;;;;;;4.72;3.10;;;11.30;99.90;;;;;;5039666;28;20060;-36
2023/08/31 02:55:56;;;;;;;4.68;3.40;;;11.30;99.90;;;;;;5160389;22;20061;-34
2023/08/31 03:06:09;;;;;;;4.43;3.13;;;11.30;99.90;;;;;;5495620;23;20112;-36
2023/08/31 03:11:24;;;;;;;5.97;3.03;;;11.30;99.90;;;;;;5141255;23;20746;-35
2023/08/31 03:13:49;;;;;;;5.40;3.05;;;11.20;99.90;;;;;;5161138;23;20013;-34
2023/08/31 03:16:15;;;;;;;4.60;2.88;;;11.30;99.90;;;;;;5015511;28;20050;-34
2023/08/31 03:18:40;;;;;;;5.32;2.90;;;11.30;99.90;;;;;;5306182;22;21509;-35
2023/08/31 03:21:06;;;;;;;4.05;2.65;;;11.20;99.90;;;;;;5002704;28;20068;-36
2023/08/31 03:23:32;;;;;;;3.30;2.40;;;11.20;99.90;;;;;;5183673;22;20062;-38
2023/08/31 03:25:58;;;;;;;4.75;2.90;;;11.20;99.90;;;;;;5009819;28;20053;-36
2023/08/31 03:28:23;;;;;;;4.35;2.47;;;11.20;99.90;;;;;;5147399;22;20080;-35
2023/08/31 03:30:58;;;;;;;3.88;2.25;;;11.20;99.90;;;;;;5037415;28;20485;-35
2023/08/31 03:33:24;;;;;;;2.58;1.70;;;11.20;99.90;;;;;;5327079;22;20052;-33
2023/08/31 03:35:50;;;;;;;3.00;2.00;;;11.20;99.90;;;;;;5047422;28;20405;-34
2023/08/31 03:38:15;;;;;;;2.97;1.75;;;11.20;99.90;;;;;;5197198;22;20513;-38
2023/08/31 03:40:41;;;;;;;4.07;1.70;;;11.20;99.90;;;;;;5028192;28;20049;-39
2023/08/31 03:43:07;;;;;;;3.55;1.58;;;11.20;99.90;;;;;;5315794;23;20058;-35
2023/08/31 03:45:32;;;;;;;5.18;2.17;;;11.20;99.90;;;;;;5020759;28;20090;-35
2023/08/31 03:47:58;;;;;;;3.20;1.25;;;11.20;99.90;;;;;;5163656;22;20041;-39
2023/08/31 03:50:24;;;;;;;3.83;1.38;;;11.20;99.90;;;;;;5024149;28;20053;-37
2023/08/31 03:52:50;;;;;;;3.35;1.55;;;11.20;99.90;;;;;;5192459;22;20060;-37
2023/08/31 03:55:15;;;;;;;3.85;1.23;;;11.20;99.90;;;;;;5021815;28;20057;-36
2023/08/31 03:57:41;;;;;;;2.53;1.27;;;11.20;99.90;;;;;;5297809;22;20061;-34
2023/08/31 04:00:12;;;;;;;4.78;1.40;;;11.20;99.90;;;;;;5023889;28;20053;-34
2023/08/31 04:02:38;;;;;;;2.33;1.23;;;11.10;99.90;;;;;;5177465;22;20053;-34
2023/08/31 04:05:05;;;;;;;4.50;1.60;;;11.10;99.90;;;;;;5025515;28;20115;-34
2023/08/31 04:09:59;;;;;;;2.38;1.20;;;11.10;99.90;;;;;;5001390;28;20058;-34
2023/08/31 04:12:25;;;;;;;3.28;1.40;;;11.10;99.90;;;;;;5258215;22;20115;-36
2023/08/31 04:17:38;;;;;;;3.75;1.70;;;11.20;99.90;;;;;;5217218;22;20065;-37
2023/08/31 04:22:39;;;;;;;3.88;1.75;;;11.10;99.90;;;;;;5023543;22;20331;-34
2023/08/31 04:27:33;;;;;;;4.97;1.70;;;11.20;99.90;;;;;;4998301;28;20116;-40
2023/08/31 04:32:35;;;;;;;3.70;1.92;;;11.20;99.90;;;;;;5072652;22;20061;-33
2023/08/31 04:37:28;;;;;;;3.90;2.67;;;11.20;99.90;;;;;;5019864;28;20052;-34
2023/08/31 04:42:23;;;;;;;4.97;2.75;;;11.20;99.90;;;;;;5000819;28;20050;-33
2023/08/31 04:44:49;;;;;;;6.43;3.90;;;11.20;99.90;;;;;;5173691;22;20144;-35
2023/08/31 04:47:15;;;;;;;5.03;3.05;;;11.20;99.90;;;;;;5027376;28;20136;-35
2023/08/31 04:49:40;;;;;;;7.03;3.58;;;11.20;99.90;;;;;;5358944;22;20623;-35
2023/08/31 04:52:06;;;;;;;6.90;3.10;;;11.30;99.90;;;;;;5009049;28;20057;-35
2023/08/31 04:54:32;;;;;;;4.78;2.97;;;11.30;99.90;;;;;;5182900;22;20103;-36
2023/08/31 04:56:58;;;;;;;8.75;2.90;;;11.30;99.90;;;;;;5043511;28;20061;-36
2023/08/31 04:59:23;;;;;;;6.05;3.58;;;11.30;99.90;;;;;;5282235;22;20127;-90
2023/08/31 05:01:49;;;;;;;6.85;3.60;;;11.30;99.90;;;;;;4966993;28;20058;-89
2023/08/31 05:06:45;;;;;;;5.30;2.72;;;11.40;99.90;;;;;;5063953;28;20060;-37
2023/08/31 05:09:11;;;;;;;4.82;2.90;;;11.40;99.90;;;;;;5363290;22;20050;-34
2023/08/31 05:11:36;;;;;;;4.78;3.13;;;11.40;99.90;;;;;;4990199;28;20058;-37
2023/08/31 05:14:02;;;;;;;5.97;3.45;;;11.40;99.90;;;;;;5017669;22;20552;-36
2023/08/31 05:16:28;;;;;;;6.22;3.35;;;11.50;99.90;;;;;;5025102;28;20049;-38
2023/08/31 05:18:54;;;;;;;5.13;3.10;;;11.60;99.90;;;;;;5245844;22;20045;-88
2023/08/31 05:21:20;;;;;;;4.60;3.17;;;11.60;99.90;;;;;;4994266;28;20044;-87
2023/08/31 05:23:48;;;;;;;4.47;2.75;;;11.60;99.90;;;;;;5024056;28;20478;-88
2023/08/31 05:26:15;;;;;;;5.75;3.47;;;11.70;99.90;;;;;;5009219;28;20071;-90
2023/08/31 05:28:41;;;;;;;5.07;2.45;;;11.70;99.90;;;;;;5044354;22;20051;-34
2023/08/31 05:31:06;;;;;;;5.85;3.20;;;11.70;99.90;;;;;;5016434;28;20037;-34
2023/08/31 05:33:33;;;;;;;5.05;2.30;;;11.80;99.90;;;;;;5272660;22;20413;-37
2023/08/31 05:36:03;;;;;;;5.90;2.20;;;11.80;99.90;;;;;;5026629;28;20049;-36
2023/08/31 05:38:29;;;;;;;5.85;2.65;;;11.90;99.90;;;;;;5276685;23;20057;-35
2023/08/31 05:41:02;;;;;;;6.60;2.42;;;11.90;99.90;;;;;;5044315;28;20045;-34
2023/08/31 05:43:28;;;;;;;3.85;2.03;;;12.00;99.90;;;;;;5278405;22;20371;-36
2023/08/31 05:45:54;;;;;;;4.57;2.20;;;12.00;99.90;;;;;;5026630;28;20064;-36
2023/08/31 05:48:19;;;;;;;4.68;2.22;;;12.10;99.90;;;;;;5349151;22;20049;-33
2023/08/31 05:50:45;;;;;;;5.47;2.40;;;12.10;99.90;;;;;;5042101;28;20059;-37
2023/08/31 05:53:10;;;;;;;4.63;2.20;;;12.10;99.90;;;;;;5348718;22;20060;-34
2023/08/31 05:58:21;;;;;;;3.65;2.10;;;12.20;99.90;;;;;;5116262;22;20132;-36
2023/08/31 06:03:22;;;;;;;5.18;2.17;;;12.40;99.90;;;;;;5071690;22;20551;-92
2023/08/31 06:05:56;;;;;;;5.22;2.13;;;12.40;99.90;;;;;;5039108;28;20412;-94
2023/08/31 06:08:26;;;;;;;3.22;1.83;;;12.50;99.90;;;;;;5056051;22;20574;-35
2023/08/31 06:10:52;;;;;;;4.53;1.75;;;12.60;99.90;;;;;;5096309;22;20113;-33
2023/08/31 06:13:18;;;;;;;5.50;2.10;;;12.70;99.90;;;;;;5030520;28;20049;-34
2023/08/31 06:15:46;;;;;;;4.45;1.60;;;12.70;99.90;;;;;;5093658;22;20033;-35
2023/08/31 06:18:12;;;;;;;3.88;2.15;;;12.70;99.90;;;;;;5046924;28;20063;-33
2023/08/31 06:20:38;;;;;;;4.55;1.88;;;12.80;99.90;;;;;;5370497;22;21475;-35
2023/08/31 06:23:03;;;;;;;4.28;1.83;;;12.80;99.90;;;;;;4961751;28;20050;-34
2023/08/31 06:25:33;;;;;;;3.80;1.65;;;12.80;99.90;;;;;;5322168;23;20025;31
2023/08/31 06:27:59;;;;;;;4.85;1.45;;;12.90;99.90;;;;;;4985109;28;20470;-37
2023/08/31 06:30:24;;;;;;;4.97;1.60;;;12.90;99.90;;;;;;5124717;22;20040;-35
2023/08/31 06:32:50;;;;;;;5.28;1.67;;;12.90;99.90;;;;;;5022422;28;20088;-35
2023/08/31 06:35:16;;;;;;;6.60;1.10;;;13.00;99.90;;;;;;5159994;22;20056;-37
2023/08/31 06:37:43;;;;;;;3.22;1.08;;;13.00;99.90;;;;;;5034502;28;20041;-36
2023/08/31 06:40:10;;;;;;;4.30;1.10;;;13.10;99.90;;;;;;5270915;22;20060;-33
2023/08/31 06:42:39;;;;;;;3.80;1.02;;;13.00;99.90;;;;;;5021140;28;20353;-34
2023/08/31 06:45:07;;;;;;;3.80;0.77;;;13.00;99.90;;;;;;5185876;22;20561;-38
2023/08/31 06:47:36;;;;;;;5.93;1.15;;;13.00;99.90;;;;;;5012470;28;20061;-34
2023/08/31 06:50:03;;;;;;;2.05;0.70;;;13.00;99.90;;;;;;5297958;23;20411;-33
2023/08/31 06:52:29;;;;;;;2.10;0.73;;;13.00;99.90;;;;;;4988006;28;20046;-33
2023/08/31 06:54:55;;;;;;;2.80;0.88;;;13.10;99.90;;;;;;5277792;22;20048;-37
2023/08/31 06:57:22;;;;;;;2.25;0.80;;;13.20;99.90;;;;;;5061222;28;20056;-37
2023/08/31 06:59:48;;;;;;;3.05;0.70;;;13.40;99.90;;;;;;5351280;22;20047;-35
2023/08/31 07:02:14;;;;;;;4.07;0.60;;;13.50;99.90;;;;;;5022435;28;20069;-36
2023/08/31 07:04:40;;;;;;;2.78;0.50;;;13.60;99.90;;;;;;5129000;22;20110;-34
2023/08/31 07:09:56;;;;;;;2.53;0.50;;;13.70;99.90;;;;;;5256950;22;20144;-37
2023/08/31 07:14:57;;;;;;;4.13;0.60;;;13.80;99.90;;;;;;4698897;22;20057;-37
2023/08/31 07:17:23;;;;;;;1.15;0.40;;;13.90;99.90;;;;;;5101477;22;20061;-33
2023/08/31 07:19:49;;;;;;;1.33;0.50;;;14.00;99.90;;;;;;4996219;28;20049;-34
2023/08/31 07:22:15;;;;;;;1.42;0.30;;;14.00;99.90;;;;;;5270695;22;20061;-35
2023/08/31 07:24:40;;;;;;;3.95;0.40;;;14.10;99.90;;;;;;4977650;28;20050;-36
2023/08/31 07:27:06;;;;;;;0.80;0.25;;;14.10;99.90;;;;;;5258164;23;20017;-43
2023/08/31 07:29:32;;;;;;;1.70;0.40;;;14.20;99.90;;;;;;5036067;28;20052;-34
2023/08/31 07:31:58;;;;;;;1.20;0.40;;;14.20;99.90;;;;;;5259979;22;20049;-35
2023/08/31 07:34:24;;;;;;;2.95;0.80;;;14.30;99.90;;;;;;5016888;28;20529;-35
2023/08/31 07:36:50;;;;;;;3.00;0.30;;;14.40;99.90;;;;;;5336960;22;20025;-36
2023/08/31 07:39:19;;;;;;;1.55;0.20;;;14.50;99.90;;;;;;5024798;28;20041;-36
2023/08/31 07:41:45;;;;;;;1.67;0.20;;;14.60;99.90;;;;;;5173447;22;20083;-35
2023/08/31 07:44:10;;;;;;;0.98;0.20;;;14.60;99.90;;;;;;5040334;28;20413;-35
2023/08/31 07:46:36;;;;;;;2.38;0.30;;;14.70;99.90;;;;;;5370873;22;20062;-35
2023/08/31 07:49:02;;;;;;;0.52;0.20;;;14.80;99.90;;;;;;4984736;28;20054;-34
2023/08/31 07:51:36;;;;;;;0.68;0.20;;;14.90;99.90;;;;;;5089065;22;20136;31
2023/08/31 07:54:03;;;;;;;3.70;0.50;;;15.00;99.90;;;;;;4990700;28;20050;-35
2023/08/31 07:56:29;;;;;;;0.75;0.10;;;15.10;99.90;;;;;;5197912;22;20069;-35
2023/08/31 07:58:54;;;;;;;1.00;0.30;;;15.20;99.90;;;;;;5001028;28;20399;-35
2023/08/31 08:01:22;;;;;;;2.53;0.30;;;15.30;99.90;;;;;;5309905;22;20598;-92
2023/08/31 08:03:51;;;;;;;1.20;0.32;;;15.40;99.90;;;;;;5026288;28;20144;-92
2023/08/31 08:06:17;;;;;;;1.40;0.40;;;15.30;99.90;;;;;;5055277;22;20103;-35
2023/08/31 08:08:43;;;;;;;0.17;0.10;;;15.40;99.90;;;;;;5025619;28;20050;-35
2023/08/31 08:11:08;;;;;;;1.65;0.47;;;15.60;99.90;;;;;;5359386;22;20049;-33
2023/08/31 08:13:34;;;;;;;1.27;0.10;;;15.70;99.90;;;;;;5036153;28;20044;-35
2023/08/31 08:16:00;;;;;;;1.55;0.32;;;15.80;99.90;;;;;;5372933;22;20058;-34
2023/08/31 08:18:25;;;;;;;1.40;0.43;;;15.80;99.90;;;;;;5016111;28;20049;-34
2023/08/31 08:20:51;;;;;;;3.08;0.30;;;15.80;99.90;;;;;;5488536;22;21047;-34
2023/08/31 08:23:17;;;;;;;2.83;0.25;;;15.90;99.90;;;;;;5021271;28;20056;-35
2023/08/31 08:25:43;;;;;;;3.70;0.30;;;16.00;99.90;;;;;;5175209;22;20060;-35
2023/08/31 08:28:08;;;;;;;2.67;0.50;;;16.00;99.90;;;;;;5014307;28;20041;-38
2023/08/31 08:30:34;;;;;;;2.15;0.40;;;15.90;99.90;;;;;;5217863;22;20498;-35
2023/08/31 08:33:00;;;;;;;2.17;0.38;;;15.90;99.90;;;;;;5018188;28;20041;-35
2023/08/31 08:35:25;;;;;;;5.65;0.35;;;15.80;99.90;;;;;;5167187;22;20125;-35
2023/08/31 08:37:52;;;;;;;3.35;0.50;;;15.70;99.90;;;;;;5018330;28;20057;-35
2023/08/31 08:40:19;;;;;;;2.83;0.40;;;15.60;99.90;;;;;;5294281;22;20081;-34
2023/08/31 08:42:47;;;;;;;6.13;1.30;;;15.50;99.90;;;;;;5012198;28;20081;-34
2023/08/31 08:45:17;;;;;;;1.70;0.50;;;15.60;99.90;;;;;;5252765;22;20548;-34
2023/08/31 08:47:44;;;;;;;2.72;0.47;;;15.60;99.90;;;;;;5009346;28;20132;-34
2023/08/31 08:50:13;;;;;;;3.30;0.60;;;15.70;99.90;;;;;;5364562;22;20053;-34
2023/08/31 08:52:41;;;;;;;2.55;0.52;;;15.80;99.90;;;;;;5038470;28;20474;-35
2023/08/31 08:55:08;;;;;;;1.27;0.47;;;15.70;99.90;;;;;;5051666;22;20054;-92
2023/08/31 08:57:34;;;;;;;4.20;0.43;;;15.70;99.90;;;;;;4983966;28;20054;-92
2023/08/31 09:00:00;;;;;;;3.65;0.57;;;15.80;99.90;;;;;;5001282;28;20254;-88
2023/08/31 09:02:27;;;;;;;6.55;0.57;;;15.90;99.90;;;;;;4977158;28;20050;-86
2023/08/31 09:04:54;;;;;;;3.72;0.40;;;16.00;99.90;;;;;;5077302;22;20115;-35
2023/08/31 09:07:23;;;;;;;4.45;0.70;;;16.10;99.90;;;;;;5018063;28;20053;-34
2023/08/31 09:09:53;;;;;;;2.03;0.38;;;16.10;99.90;;;;;;5252928;22;20477;-35
2023/08/31 09:15:13;;;;;;;2.15;0.47;;;16.30;99.90;;;;;;5213216;22;20111;-35
2023/08/31 09:25:17;;;;;;;1.45;0.35;;;16.40;99.90;;;;;;5015277;28;20065;-36
2023/08/31 09:27:44;;;;;;;0.98;0.30;;;16.50;99.90;;;;;;5164622;22;21085;-34
2023/08/31 09:30:11;;;;;;;1.85;0.30;;;16.60;99.90;;;;;;5033751;28;20038;-36
2023/08/31 09:32:36;;;;;;;2.50;0.30;;;16.70;99.90;;;;;;5165941;22;20061;-35
2023/08/31 09:35:03;;;;;;;1.85;0.40;;;16.70;99.90;;;;;;5029997;28;20053;-35
2023/08/31 09:37:29;;;;;;;0.70;0.22;;;16.70;99.90;;;;;;5182656;22;20417;-35
2023/08/31 09:39:55;;;;;;;2.72;0.30;;;16.80;99.90;;;;;;5047554;28;20049;-34
2023/08/31 09:42:20;;;;;;;2.53;0.32;;;17.10;99.90;;;;;;5349082;22;20512;-35
2023/08/31 09:44:49;;;;;;;2.10;0.45;;;17.30;99.90;;;;;;5029008;28;20411;-35
2023/08/31 09:47:16;;;;;;;2.10;0.30;;;17.60;99.90;;;;;;5332968;22;20044;-35
2023/08/31 09:49:43;;;;;;;2.53;0.50;;;17.50;99.90;;;;;;5051626;28;20555;-36
2023/08/31 09:52:10;;;;;;;4.20;0.60;;;17.20;99.90;;;;;;5117747;22;20580;-35
2023/08/31 09:54:36;;;;;;;4.95;0.40;;;17.00;99.90;;;;;;5045255;28;20057;-36
2023/08/31 09:57:02;;;;;;;2.78;0.40;;;16.70;99.90;;;;;;5398093;22;20513;-35
2023/08/31 09:59:28;;;;;;;1.50;0.40;;;16.40;99.90;;;;;;5047627;28;20566;-35
2023/08/31 10:01:56;;;;;;;3.40;0.40;;;16.20;99.90;;;;;;5120935;22;20523;-36
2023/08/31 10:04:22;;;;;;;0.95;0.30;;;16.10;99.90;;;;;;5048191;28;20591;-35
2023/08/31 10:06:49;;;;;;;0.85;0.22;;;16.10;99.90;;;;;;5129750;22;20057;-35
2023/08/31 10:09:15;;;;;;;1.52;0.22;;;16.20;99.90;;;;;;5027947;28;20107;-35
2023/08/31 10:11:44;;;;;;;1.90;0.20;;;16.40;99.90;;;;;;5129725;22;20060;-35
2023/08/31 10:16:48;;;;;;;0.57;0.13;;;16.90;99.90;;;;;;5221469;22;20120;-36
2023/08/31 10:27:24;;;;;;;2.35;0.40;;;17.20;99.90;;;;;;4987053;28;20061;-35
2023/08/31 10:29:50;;;;;;;2.50;0.30;;;17.40;99.90;;;;;;5058124;22;20081;-35
2023/08/31 10:32:19;;;;;;;3.35;0.85;;;17.60;99.90;;;;;;5012564;28;20089;-34
2023/08/31 10:35:04;;;;;;;1.35;0.22;;;17.70;99.90;;;;;;5324047;22;20049;-91
2023/08/31 10:37:31;;;;;;;1.88;0.40;;;17.70;99.90;;;;;;5008502;28;20052;-92
2023/08/31 10:40:26;;;;;;;3.30;0.30;;;17.80;99.90;;;;;;5022628;23;20045;-36
2023/08/31 10:43:14;;;;;;;1.92;0.35;;;17.80;99.90;;;;;;5016470;28;20072;-36
2023/08/31 10:45:44;;;;;;;2.95;0.35;;;17.90;99.90;;;;;;5178143;22;20819;-36
2023/08/31 10:50:59;;;;;;;2.03;0.63;;;18.30;99.90;;;;;;5004681;28;20836;-35
2023/08/31 10:53:31;;;;;;;1.60;0.35;;;18.50;99.90;;;;;;5275540;23;20154;-37
2023/08/31 10:55:56;;;;;;;2.72;0.30;;;18.70;99.90;;;;;;5027050;28;20543;-35
2023/08/31 10:58:32;;;;;;;2.45;0.43;;;18.60;99.90;;;;;;5217008;22;20038;-35
2023/08/31 11:00:58;;;;;;;3.63;0.32;;;18.60;99.90;;;;;;5026988;28;20088;-35
2023/08/31 11:03:24;;;;;;;1.85;0.60;;;18.40;99.90;;;;;;5054982;22;20458;-35
2023/08/31 11:05:53;;;;;;;2.58;0.50;;;18.00;99.90;;;;;;5043679;28;20386;-35
2023/08/31 11:08:25;;;;;;;2.28;0.40;;;17.70;99.90;;;;;;5119142;22;20501;-35
2023/08/31 11:13:45;;;;;;;0.60;0.10;;;16.00;99.90;;;;;;5256767;22;20049;-35
2023/08/31 11:18:49;;;;;;;1.65;0.20;;;14.20;99.90;;;;;;3294982;22;20080;-35
2023/08/31 11:24:04;;;;;;;1.15;0.20;;;14.00;99.90;;;;;;5067868;22;20080;-87
2023/08/31 11:26:32;;;;;;;1.50;0.38;;;14.20;99.90;;;;;;5027890;28;20100;-88
2023/08/31 11:28:59;;;;;;;0.20;0.05;;;14.40;99.90;;;;;;5009433;28;20049;-87
2023/08/31 11:31:30;;;;;;;1.65;0.10;;;14.70;99.90;;;;;;5008052;28;20050;-92
2023/08/31 11:33:56;;;;;;;0.40;0.10;;;15.20;99.90;;;;;;5047272;23;20128;-35
2023/08/31 11:36:22;;;;;;;0.63;0.10;;;15.50;99.90;;;;;;5385753;22;20047;-34
2023/08/31 11:38:49;;;;;;;0.73;0.20;;;15.90;99.90;;;;;;5008629;28;20061;-35
2023/08/31 11:41:14;;;;;;;3.35;0.30;;;16.20;99.90;;;;;;5180136;22;20027;-34
2023/08/31 11:43:41;;;;;;;3.83;0.55;;;16.50;99.90;;;;;;5037870;28;20041;-35
2023/08/31 11:46:08;;;;;;;2.60;0.40;;;16.80;99.90;;;;;;5321218;22;20082;-35
2023/08/31 11:48:34;;;;;;;3.15;0.32;;;16.90;99.90;;;;;;5014177;28;20441;-35
2023/08/31 11:51:00;;;;;;;1.50;0.30;;;17.10;99.90;;;;;;5051545;22;20051;-36
2023/08/31 11:53:27;;;;;;;2.45;0.32;;;17.20;99.90;;;;;;5051579;28;20555;-35
2023/08/31 11:55:53;;;;;;;2.45;0.22;;;17.20;99.90;;;;;;5303142;22;20073;-36
2023/08/31 11:58:24;;;;;;;3.65;0.40;;;17.30;99.90;;;;;;5033770;28;20486;-35
2023/08/31 12:01:03;;;;;;;2.55;0.45;;;17.50;99.90;;;;;;5184865;22;20177;-92
2023/08/31 12:03:43;;;;;;;3.22;0.32;;;17.70;99.90;;;;;;5036593;28;20067;-92
2023/08/31 12:06:14;;;;;;;1.85;0.43;;;17.90;99.90;;;;;;5080339;22;20387;-36
2023/08/31 12:08:40;;;;;;;1.38;0.30;;;17.90;99.90;;;;;;5032057;28;20053;-36
2023/08/31 12:11:08;;;;;;;3.92;0.38;;;17.70;99.90;;;;;;5353087;22;20115;-35
2023/08/31 12:13:34;;;;;;;2.40;0.38;;;17.30;99.90;;;;;;5013055;28;20062;-35
2023/08/31 12:16:01;;;;;;;1.08;0.30;;;16.90;99.90;;;;;;5030179;22;20088;-36
2023/08/31 12:21:10;;;;;;;2.72;0.40;;;16.20;99.90;;;;;;4978941;22;20062;-36
2023/08/31 12:23:36;;;;;;;2.53;0.30;;;15.90;99.90;;;;;;5063147;23;20021;-35
2023/08/31 12:26:02;;;;;;;1.80;0.25;;;15.70;99.90;;;;;;5043374;28;20397;-39
2023/08/31 12:28:28;;;;;;;2.38;0.30;;;15.70;99.90;;;;;;5327746;22;20631;-36
2023/08/31 12:30:57;;;;;;;1.83;0.30;;;15.80;99.90;;;;;;5034173;28;20115;-36
2023/08/31 12:33:24;;;;;;;2.13;0.43;;;16.10;99.90;;;;;;5148874;22;20049;-90
2023/08/31 12:35:50;;;;;;;2.78;0.55;;;16.50;99.90;;;;;;5057436;28;20068;-87
2023/08/31 12:38:16;;;;;;;2.55;0.40;;;16.80;99.90;;;;;;5089011;28;20047;-88
2023/08/31 12:40:42;;;;;;;4.35;0.55;;;17.20;99.90;;;;;;5028010;23;20050;-35
2023/08/31 12:43:07;;;;;;;0.73;0.30;;;17.40;99.90;;;;;;5157983;22;20057;-35
2023/08/31 12:45:33;;;;;;;2.70;0.47;;;17.70;99.90;;;;;;4991189;28;20049;-36
2023/08/31 12:47:59;;;;;;;4.38;0.70;;;18.10;99.90;;;;;;5021247;22;20517;-37
2023/08/31 12:50:25;;;;;;;0.98;0.22;;;18.40;99.90;;;;;;5014057;28;20118;-36
2023/08/31 12:52:51;;;;;;;1.75;0.30;;;18.50;99.90;;;;;;5450661;22;20054;-36
2023/08/31 12:55:17;;;;;;;1.45;0.30;;;18.60;99.90;;;;;;5024942;28;20058;-36
2023/08/31 12:57:49;;;;;;;3.25;0.43;;;18.50;99.90;;;;;;5395132;23;20041;-92
2023/08/31 13:00:16;;;;;;;2.40;0.30;;;18.50;99.90;;;;;;4990836;28;20065;-93
2023/08/31 13:05:14;;;;;;;1.33;0.20;;;18.90;99.90;;;;;;4994425;28;20069;-34
2023/08/31 13:07:40;;;;;;;3.30;0.65;;;19.20;99.90;;;;;;5047355;23;20049;-35
2023/08/31 13:10:06;;;;;;;1.52;0.30;;;19.60;99.90;;;;;;5048096;28;20041;-35
2023/08/31 13:12:32;;;;;;;1.38;0.35;;;19.80;99.90;;;;;;5102990;22;20487;-35
2023/08/31 13:17:33;;;;;;;2.60;0.30;;;20.60;99.90;;;;;;5149614;22;20057;-36
2023/08/31 13:20:08;;;;;;;4.85;0.60;;;20.80;99.90;;;;;;5186987;22;21400;31
2023/08/31 13:22:34;;;;;;;1.85;0.35;;;20.90;99.90;;;;;;5006906;28;20161;-36
2023/08/31 13:25:00;;;;;;;2.17;0.40;;;21.30;99.90;;;;;;5075167;22;20129;-36
2023/08/31 13:27:25;;;;;;;2.53;0.30;;;21.40;99.90;;;;;;5014902;28;20042;-36
2023/08/31 13:29:51;;;;;;;1.55;0.30;;;21.50;99.90;;;;;;5284663;22;21113;-36
2023/08/31 13:32:17;;;;;;;1.40;0.38;;;21.00;99.90;;;;;;5043754;28;20405;-37
2023/08/31 13:34:43;;;;;;;2.00;0.40;;;20.40;99.90;;;;;;5213622;22;20192;-37
2023/08/31 13:37:08;;;;;;;4.80;0.40;;;20.40;99.90;;;;;;5028838;28;20050;-38
2023/08/31 13:39:40;;;;;;;2.47;0.50;;;20.50;99.90;;;;;;5177256;22;20065;-36
2023/08/31 13:42:06;;;;;;;1.55;0.30;;;20.40;99.90;;;;;;5044385;28;20048;-35
2023/08/31 13:44:33;;;;;;;1.70;0.40;;;20.30;99.90;;;;;;5204915;22;20052;-37
2023/08/31 13:46:59;;;;;;;1.98;0.30;;;20.30;99.90;;;;;;5042127;28;20163;-36
2023/08/31 13:49:25;;;;;;;1.45;0.40;;;19.80;99.90;;;;;;5723200;22;20072;-35
2023/08/31 13:51:50;;;;;;;3.72;0.52;;;19.50;99.90;;;;;;5047725;28;20383;-36
2023/08/31 13:54:16;;;;;;;3.05;0.35;;;19.10;99.90;;;;;;5702714;22;20046;-36
2023/08/31 13:56:43;;;;;;;2.70;0.35;;;19.10;99.90;;;;;;5008215;28;20052;-36
2023/08/31 13:59:09;;;;;;;1.35;0.30;;;18.90;99.90;;;;;;5294057;22;20059;-35
2023/08/31 14:01:34;;;;;;;4.15;0.82;;;18.90;99.90;;;;;;5049188;28;20060;-36
2023/08/31 14:04:03;;;;;;;4.20;0.43;;;18.90;99.90;;;;;;5010583;22;20049;-37
2023/08/31 14:09:05;;;;;;;4.43;0.50;;;19.30;99.90;;;;;;5178303;23;19925;-36
2023/08/31 14:14:10;;;;;;;4.32;0.73;;;20.80;99.90;;;;;;5267910;23;20509;-37
2023/08/31 14:19:11;;;;;;;1.83;0.30;;;21.90;99.90;;;;;;6073644;22;20339;-35
2023/08/31 14:24:19;;;;;;;3.20;0.65;;;21.50;99.90;;;;;;5003754;28;20506;-34
2023/08/31 14:29:13;;;;;;;2.90;0.50;;;21.00;99.90;;;;;;5025142;28;20108;-37
2023/08/31 14:34:14;;;;;;;1.55;0.35;;;21.10;99.90;;;;;;5013280;28;20513;-37
2023/08/31 14:39:08;;;;;;;2.42;0.38;;;20.60;99.90;;;;;;5026115;28;20057;-36
2023/08/31 14:41:34;;;;;;;1.70;0.30;;;21.30;99.90;;;;;;5160354;22;20473;-36
2023/08/31 14:44:00;;;;;;;3.55;0.35;;;22.50;99.90;;;;;;5030737;28;20493;-37
2023/08/31 14:46:25;;;;;;;2.47;0.32;;;23.20;99.90;;;;;;5178029;22;20045;-35
2023/08/31 14:48:51;;;;;;;3.20;0.50;;;23.80;99.90;;;;;;5028789;28;20142;-36
2023/08/31 14:51:17;;;;;;;1.77;0.43;;;23.40;99.90;;;;;;5161311;22;20053;-41